Terminal Aerodrome Forecast
Issued by NWS Houston/Galveston, TX

Home | Current Version | Previous Version | Text Only | Print | Product List | Glossary On
Versions: 1 2 3 4 5 6 7 8 9 10 11 12 13 14 15 16 17 18 19 20 21 22 23 24 25 26 27 28 29 30 31
000
FTUS44 KHGX 301740
TAFCLL
TAF
KCLL 301740Z 3018/3118 VRB03KT P6SM OVC025
     FM301900 VRB05KT P6SM SCT030 BKN050
     FM310300 17004KT P6SM FEW015 BKN250
     FM311000 18003KT P6SM MIFG SCT015 OVC025
     FM311500 17007KT P6SM BKN025=

USA.gov is the U.S. government's official web portal to all federal, state and local government web resources and services.